sensor_id;sensor_type;location;lat;lon;timestamp;pressure;altitude;pressure_sealevel;temperature;humidity
20105;BME280;10212;42.714;23.310;2023-01-30T00:02:39;95445.25;;;-2.05;88.72
20105;BME280;10212;42.714;23.310;2023-01-30T00:12:40;95450.16;;;-2.02;88.88
20105;BME280;10212;42.714;23.310;2023-01-30T00:22:40;95452.25;;;-2.07;90.09
20105;BME280;10212;42.714;23.310;2023-01-30T00:53:19;95423.41;;;-2.32;89.97
20105;BME280;10212;42.714;23.310;2023-01-30T01:03:20;95439.19;;;-2.38;91.71
20105;BME280;10212;42.714;23.310;2023-01-30T01:13:20;95434.19;;;-2.51;91.31
20105;BME280;10212;42.714;23.310;2023-01-30T01:23:21;95415.59;;;-2.53;91.64
20105;BME280;10212;42.714;23.310;2023-01-30T01:33:25;95401.66;;;-2.49;92.15
20105;BME280;10212;42.714;23.310;2023-01-30T01:43:26;95398.78;;;-2.45;91.91
20105;BME280;10212;42.714;23.310;2023-01-30T01:53:32;95405.84;;;-2.37;91.05
20105;BME280;10212;42.714;23.310;2023-01-30T02:03:38;95414.56;;;-2.39;91.27
20105;BME280;10212;42.714;23.310;2023-01-30T02:13:40;95404.72;;;-2.44;91.19
20105;BME280;10212;42.714;23.310;2023-01-30T02:45:05;95393.66;;;-2.45;89.65
20105;BME280;10212;42.714;23.310;2023-01-30T02:55:20;95391.69;;;-2.41;89.95
20105;BME280;10212;42.714;23.310;2023-01-30T03:15:34;95379.84;;;-2.42;89.28
20105;BME280;10212;42.714;23.310;2023-01-30T03:25:38;95360.94;;;-2.39;89.06
20105;BME280;10212;42.714;23.310;2023-01-30T03:35:41;95356.06;;;-2.43;89.20
20105;BME280;10212;42.714;23.310;2023-01-30T03:45:42;95349.06;;;-2.40;89.24
20105;BME280;10212;42.714;23.310;2023-01-30T03:55:43;95345.34;;;-2.59;89.54
20105;BME280;10212;42.714;23.310;2023-01-30T04:05:44;95345.81;;;-2.54;89.97
20105;BME280;10212;42.714;23.310;2023-01-30T04:15:44;95337.00;;;-2.61;90.31
20105;BME280;10212;42.714;23.310;2023-01-30T04:25:45;95339.06;;;-2.67;90.47
20105;BME280;10212;42.714;23.310;2023-01-30T04:35:59;95336.28;;;-2.63;90.77
20105;BME280;10212;42.714;23.310;2023-01-30T04:45:59;95338.41;;;-2.57;90.44
20105;BME280;10212;42.714;23.310;2023-01-30T04:56:00;95322.84;;;-2.54;90.77
20105;BME280;10212;42.714;23.310;2023-01-30T05:06:00;95314.25;;;-2.64;92.08
20105;BME280;10212;42.714;23.310;2023-01-30T05:16:00;95316.13;;;-2.55;91.90
20105;BME280;10212;42.714;23.310;2023-01-30T05:26:01;95324.50;;;-2.53;92.65
20105;BME280;10212;42.714;23.310;2023-01-30T05:36:02;95326.34;;;-2.55;93.83
20105;BME280;10212;42.714;23.310;2023-01-30T05:46:04;95330.16;;;-2.61;94.39
20105;BME280;10212;42.714;23.310;2023-01-30T05:56:05;95332.34;;;-2.68;94.85
20105;BME280;10212;42.714;23.310;2023-01-30T06:06:06;95342.81;;;-2.71;94.55
20105;BME280;10212;42.714;23.310;2023-01-30T06:16:08;95338.38;;;-2.80;95.24
20105;BME280;10212;42.714;23.310;2023-01-30T06:26:09;95337.19;;;-2.87;95.37
20105;BME280;10212;42.714;23.310;2023-01-30T06:36:09;95324.47;;;-2.76;95.14
20105;BME280;10212;42.714;23.310;2023-01-30T06:46:10;95334.91;;;-2.68;94.01
20105;BME280;10212;42.714;23.310;2023-01-30T06:56:10;95340.94;;;-2.69;93.59
20105;BME280;10212;42.714;23.310;2023-01-30T07:06:10;95341.19;;;-2.60;93.81
20105;BME280;10212;42.714;23.310;2023-01-30T07:16:11;95343.50;;;-2.57;92.90
20105;BME280;10212;42.714;23.310;2023-01-30T07:26:11;95346.06;;;-2.34;90.92
20105;BME280;10212;42.714;23.310;2023-01-30T07:36:12;95357.00;;;-2.32;90.01
20105;BME280;10212;42.714;23.310;2023-01-30T07:46:12;95362.34;;;-2.35;91.15
20105;BME280;10212;42.714;23.310;2023-01-30T07:56:13;95345.84;;;-2.31;91.52
20105;BME280;10212;42.714;23.310;2023-01-30T08:06:17;95333.75;;;-2.18;90.96
20105;BME280;10212;42.714;23.310;2023-01-30T08:16:17;95319.34;;;-2.07;89.28
20105;BME280;10212;42.714;23.310;2023-01-30T08:26:18;95325.59;;;-2.00;89.55
20105;BME280;10212;42.714;23.310;2023-01-30T08:36:18;95309.16;;;-1.74;86.79
20105;BME280;10212;42.714;23.310;2023-01-30T08:46:19;95297.91;;;-1.72;86.79
20105;BME280;10212;42.714;23.310;2023-01-30T08:56:22;95294.56;;;-1.51;84.84
20105;BME280;10212;42.714;23.310;2023-01-30T09:06:22;95294.38;;;-1.38;84.09
20105;BME280;10212;42.714;23.310;2023-01-30T09:16:23;95281.97;;;-1.42;85.00
20105;BME280;10212;42.714;23.310;2023-01-30T09:26:23;95273.13;;;-1.38;85.21
20105;BME280;10212;42.714;23.310;2023-01-30T09:36:24;95283.75;;;-1.54;84.51
20105;BME280;10212;42.714;23.310;2023-01-30T09:46:50;95264.03;;;-1.97;86.44
20105;BME280;10212;42.714;23.310;2023-01-30T10:28:05;95200.91;;;-1.85;82.14
20105;BME280;10212;42.714;23.310;2023-01-30T10:58:50;95141.47;;;-1.77;80.83
20105;BME280;10212;42.714;23.310;2023-01-30T11:08:54;95115.44;;;-1.61;80.76
20105;BME280;10212;42.714;23.310;2023-01-30T11:18:55;95089.25;;;-1.22;80.13
20105;BME280;10212;42.714;23.310;2023-01-30T11:28:58;95080.09;;;-1.14;78.77
20105;BME280;10212;42.714;23.310;2023-01-30T11:49:17;95026.94;;;-1.52;79.43
20105;BME280;10212;42.714;23.310;2023-01-30T11:59:30;95020.41;;;-1.35;80.31
20105;BME280;10212;42.714;23.310;2023-01-30T12:09:36;94996.84;;;-1.38;78.11
20105;BME280;10212;42.714;23.310;2023-01-30T12:30:31;94959.69;;;-1.23;77.76
20105;BME280;10212;42.714;23.310;2023-01-30T12:51:41;94934.38;;;-1.26;78.41
20105;BME280;10212;42.714;23.310;2023-01-30T13:01:50;94923.06;;;-1.03;77.18
20105;BME280;10212;42.714;23.310;2023-01-30T13:32:51;94894.78;;;-1.12;77.75
20105;BME280;10212;42.714;23.310;2023-01-30T13:42:58;94889.09;;;-0.95;77.11
20105;BME280;10212;42.714;23.310;2023-01-30T13:53:07;94878.63;;;-1.32;78.06
20105;BME280;10212;42.714;23.310;2023-01-30T14:13:14;94880.34;;;-1.42;76.66
20105;BME280;10212;42.714;23.310;2023-01-30T14:33:56;94883.69;;;-1.52;78.06
20105;BME280;10212;42.714;23.310;2023-01-30T14:43:56;94872.38;;;-1.59;78.37
20105;BME280;10212;42.714;23.310;2023-01-30T15:04:17;94844.28;;;-2.20;81.97
20105;BME280;10212;42.714;23.310;2023-01-30T15:14:43;94857.09;;;-2.42;82.40
20105;BME280;10212;42.714;23.310;2023-01-30T15:55:41;94862.78;;;-2.59;82.36
20105;BME280;10212;42.714;23.310;2023-01-30T16:05:47;94861.63;;;-2.55;83.16
20105;BME280;10212;42.714;23.310;2023-01-30T16:26:12;94849.34;;;-2.61;82.52
20105;BME280;10212;42.714;23.310;2023-01-30T16:56:45;94833.63;;;-2.88;83.08
20105;BME280;10212;42.714;23.310;2023-01-30T17:06:55;94844.69;;;-2.99;83.35
20105;BME280;10212;42.714;23.310;2023-01-30T17:17:05;94845.47;;;-3.08;82.54
20105;BME280;10212;42.714;23.310;2023-01-30T17:27:06;94850.88;;;-3.01;82.10
20105;BME280;10212;42.714;23.310;2023-01-30T17:37:13;94846.81;;;-3.04;80.47
20105;BME280;10212;42.714;23.310;2023-01-30T17:47:15;94826.66;;;-3.07;81.16
20105;BME280;10212;42.714;23.310;2023-01-30T17:57:16;94818.31;;;-3.09;81.13
20105;BME280;10212;42.714;23.310;2023-01-30T18:07:16;94812.56;;;-3.11;80.05
20105;BME280;10212;42.714;23.310;2023-01-30T18:17:17;94811.59;;;-3.10;79.28
20105;BME280;10212;42.714;23.310;2023-01-30T18:27:18;94817.16;;;-3.05;78.88
20105;BME280;10212;42.714;23.310;2023-01-30T18:37:21;94808.50;;;-2.93;78.77
20105;BME280;10212;42.714;23.310;2023-01-30T18:47:21;94816.28;;;-2.94;79.50
20105;BME280;10212;42.714;23.310;2023-01-30T18:57:22;94810.09;;;-2.92;80.01
20105;BME280;10212;42.714;23.310;2023-01-30T19:07:24;94815.53;;;-2.85;80.14
20105;BME280;10212;42.714;23.310;2023-01-30T19:17:24;94819.81;;;-2.85;80.39
20105;BME280;10212;42.714;23.310;2023-01-30T19:27:25;94795.34;;;-2.88;80.98
20105;BME280;10212;42.714;23.310;2023-01-30T19:37:26;94782.72;;;-2.89;81.70
20105;BME280;10212;42.714;23.310;2023-01-30T19:47:29;94776.25;;;-2.94;81.78
20105;BME280;10212;42.714;23.310;2023-01-30T19:57:30;94774.63;;;-2.95;81.87
20105;BME280;10212;42.714;23.310;2023-01-30T20:07:34;94770.59;;;-2.97;81.41
20105;BME280;10212;42.714;23.310;2023-01-30T20:17:35;94750.84;;;-2.95;81.92
20105;BME280;10212;42.714;23.310;2023-01-30T20:27:36;94751.78;;;-2.96;81.53
20105;BME280;10212;42.714;23.310;2023-01-30T20:37:38;94745.13;;;-2.87;81.87
20105;BME280;10212;42.714;23.310;2023-01-30T20:47:38;94743.53;;;-2.88;82.98
20105;BME280;10212;42.714;23.310;2023-01-30T20:57:43;94752.19;;;-3.01;83.47
20105;BME280;10212;42.714;23.310;2023-01-30T21:07:43;94757.09;;;-3.09;84.30
20105;BME280;10212;42.714;23.310;2023-01-30T21:17:44;94747.16;;;-3.12;84.05
20105;BME280;10212;42.714;23.310;2023-01-30T21:27:45;94748.13;;;-3.04;83.66
20105;BME280;10212;42.714;23.310;2023-01-30T21:37:46;94744.16;;;-2.96;83.25
20105;BME280;10212;42.714;23.310;2023-01-30T21:48:05;94737.88;;;-2.82;81.88
20105;BME280;10212;42.714;23.310;2023-01-30T21:58:05;94737.13;;;-2.73;81.04
20105;BME280;10212;42.714;23.310;2023-01-30T22:08:05;94758.03;;;-2.79;82.62
20105;BME280;10212;42.714;23.310;2023-01-30T22:18:06;94749.63;;;-2.70;82.25
20105;BME280;10212;42.714;23.310;2023-01-30T22:28:06;94735.56;;;-2.54;82.14
20105;BME280;10212;42.714;23.310;2023-01-30T22:38:07;94729.69;;;-2.45;81.79
20105;BME280;10212;42.714;23.310;2023-01-30T22:48:07;94740.41;;;-2.51;81.98
20105;BME280;10212;42.714;23.310;2023-01-30T22:58:07;94751.16;;;-2.57;83.73
20105;BME280;10212;42.714;23.310;2023-01-30T23:08:08;94741.75;;;-2.47;82.67
20105;BME280;10212;42.714;23.310;2023-01-30T23:18:09;94731.31;;;-2.24;81.29
20105;BME280;10212;42.714;23.310;2023-01-30T23:28:28;94724.63;;;-2.25;81.90
20105;BME280;10212;42.714;23.310;2023-01-30T23:38:28;94696.63;;;-2.26;82.14
20105;BME280;10212;42.714;23.310;2023-01-30T23:48:29;94698.78;;;-2.12;80.87
20105;BME280;10212;42.714;23.310;2023-01-30T23:58:29;94704.34;;;-1.97;80.83
